sensor_id;sensor_type;location;lat;lon;timestamp;pressure;altitude;pressure_sealevel;temperature;humidity
22550;BME280;11441;57.164;-2.120;2023-02-11T00:01:35;101850.50;;;10.12;100.00
22550;BME280;11441;57.164;-2.120;2023-02-11T00:04:04;101848.72;;;10.25;100.00
22550;BME280;11441;57.164;-2.120;2023-02-11T00:06:33;101864.47;;;10.33;100.00
22550;BME280;11441;57.164;-2.120;2023-02-11T00:09:01;101860.69;;;10.29;100.00
22550;BME280;11441;57.164;-2.120;2023-02-11T00:11:28;101870.94;;;10.37;100.00
22550;BME280;11441;57.164;-2.120;2023-02-11T00:13:58;101872.56;;;10.47;100.00
22550;BME280;11441;57.164;-2.120;2023-02-11T00:16:26;101872.06;;;10.45;100.00
22550;BME280;11441;57.164;-2.120;2023-02-11T00:18:54;101863.94;;;10.48;100.00
22550;BME280;11441;57.164;-2.120;2023-02-11T00:21:23;101853.75;;;10.57;100.00
22550;BME280;11441;57.164;-2.120;2023-02-11T00:23:51;101860.22;;;10.62;100.00
22550;BME280;11441;57.164;-2.120;2023-02-11T00:26:20;101850.50;;;10.64;100.00
22550;BME280;11441;57.164;-2.120;2023-02-11T00:28:49;101852.72;;;10.71;100.00
22550;BME280;11441;57.164;-2.120;2023-02-11T00:31:17;101866.63;;;10.83;100.00
22550;BME280;11441;57.164;-2.120;2023-02-11T00:33:47;101867.94;;;10.86;100.00
22550;BME280;11441;57.164;-2.120;2023-02-11T00:36:16;101876.53;;;10.84;100.00
22550;BME280;11441;57.164;-2.120;2023-02-11T00:38:46;101873.78;;;10.84;100.00
22550;BME280;11441;57.164;-2.120;2023-02-11T00:41:14;101865.16;;;10.94;100.00
22550;BME280;11441;57.164;-2.120;2023-02-11T00:43:41;101873.44;;;10.86;100.00
22550;BME280;11441;57.164;-2.120;2023-02-11T00:46:08;101874.75;;;10.80;100.00
22550;BME280;11441;57.164;-2.120;2023-02-11T00:48:35;101878.78;;;10.91;100.00
22550;BME280;11441;57.164;-2.120;2023-02-11T00:51:02;101883.00;;;10.88;100.00
22550;BME280;11441;57.164;-2.120;2023-02-11T00:53:30;101879.75;;;10.86;100.00
22550;BME280;11441;57.164;-2.120;2023-02-11T00:55:57;101877.84;;;10.78;100.00
22550;BME280;11441;57.164;-2.120;2023-02-11T00:58:25;101879.13;;;10.81;100.00
22550;BME280;11441;57.164;-2.120;2023-02-11T01:00:54;101888.06;;;10.78;100.00
22550;BME280;11441;57.164;-2.120;2023-02-11T01:03:23;101891.31;;;10.71;100.00
22550;BME280;11441;57.164;-2.120;2023-02-11T01:05:50;101882.38;;;10.74;100.00
22550;BME280;11441;57.164;-2.120;2023-02-11T01:08:18;101893.56;;;10.69;100.00
22550;BME280;11441;57.164;-2.120;2023-02-11T01:10:44;101893.13;;;10.58;100.00
22550;BME280;11441;57.164;-2.120;2023-02-11T01:13:18;101890.84;;;10.60;100.00
22550;BME280;11441;57.164;-2.120;2023-02-11T01:15:45;101894.91;;;10.63;100.00
22550;BME280;11441;57.164;-2.120;2023-02-11T01:18:12;101901.84;;;10.69;100.00
22550;BME280;11441;57.164;-2.120;2023-02-11T01:20:40;101903.16;;;10.71;100.00
22550;BME280;11441;57.164;-2.120;2023-02-11T01:23:07;101910.94;;;10.69;100.00
22550;BME280;11441;57.164;-2.120;2023-02-11T01:25:35;101911.56;;;10.84;100.00
22550;BME280;11441;57.164;-2.120;2023-02-11T01:28:02;101920.47;;;10.81;100.00
22550;BME280;11441;57.164;-2.120;2023-02-11T01:30:29;101914.78;;;10.86;100.00
22550;BME280;11441;57.164;-2.120;2023-02-11T01:32:56;101936.03;;;10.85;100.00
22550;BME280;11441;57.164;-2.120;2023-02-11T01:35:23;101925.34;;;10.75;100.00
22550;BME280;11441;57.164;-2.120;2023-02-11T01:37:50;101915.13;;;10.84;100.00
22550;BME280;11441;57.164;-2.120;2023-02-11T01:40:17;101929.88;;;10.80;100.00
22550;BME280;11441;57.164;-2.120;2023-02-11T01:42:44;101923.88;;;10.78;100.00
22550;BME280;11441;57.164;-2.120;2023-02-11T01:48:26;101933.13;;;10.82;100.00
22550;BME280;11441;57.164;-2.120;2023-02-11T01:51:15;101930.53;;;10.77;100.00
22550;BME280;11441;57.164;-2.120;2023-02-11T01:53:45;101930.03;;;10.74;100.00
22550;BME280;11441;57.164;-2.120;2023-02-11T01:56:34;101929.72;;;10.76;100.00
22550;BME280;11441;57.164;-2.120;2023-02-11T01:59:45;101932.97;;;10.69;100.00
22550;BME280;11441;57.164;-2.120;2023-02-11T02:02:16;101934.44;;;10.58;100.00
22550;BME280;11441;57.164;-2.120;2023-02-11T02:04:52;101929.56;;;10.64;100.00
22550;BME280;11441;57.164;-2.120;2023-02-11T02:07:31;101932.47;;;10.59;100.00
22550;BME280;11441;57.164;-2.120;2023-02-11T02:10:05;101927.81;;;10.50;100.00
22550;BME280;11441;57.164;-2.120;2023-02-11T02:12:35;101926.97;;;10.59;100.00
22550;BME280;11441;57.164;-2.120;2023-02-11T02:15:40;101925.53;;;10.70;100.00
22550;BME280;11441;57.164;-2.120;2023-02-11T02:29:35;101912.34;;;10.84;100.00
22550;BME280;11441;57.164;-2.120;2023-02-11T02:38:02;101915.13;;;10.84;100.00
22550;BME280;11441;57.164;-2.120;2023-02-11T02:40:54;101923.06;;;10.86;100.00
22550;BME280;11441;57.164;-2.120;2023-02-11T02:43:25;101921.75;;;10.92;100.00
22550;BME280;11441;57.164;-2.120;2023-02-11T02:45:53;101917.19;;;10.96;100.00
22550;BME280;11441;57.164;-2.120;2023-02-11T02:48:33;101932.59;;;10.97;100.00
22550;BME280;11441;57.164;-2.120;2023-02-11T02:57:09;101935.88;;;10.82;100.00
22550;BME280;11441;57.164;-2.120;2023-02-11T03:03:07;101938.66;;;10.73;100.00
22550;BME280;11441;57.164;-2.120;2023-02-11T03:08:30;101934.13;;;10.60;100.00
22550;BME280;11441;57.164;-2.120;2023-02-11T03:11:00;101938.66;;;10.55;100.00
22550;BME280;11441;57.164;-2.120;2023-02-11T03:13:32;101926.19;;;10.49;100.00
22550;BME280;11441;57.164;-2.120;2023-02-11T03:16:07;101931.53;;;10.37;100.00
22550;BME280;11441;57.164;-2.120;2023-02-11T03:22:01;101936.56;;;10.52;100.00
22550;BME280;11441;57.164;-2.120;2023-02-11T03:24:33;101935.25;;;10.41;100.00
22550;BME280;11441;57.164;-2.120;2023-02-11T03:27:20;101940.75;;;10.32;100.00
22550;BME280;11441;57.164;-2.120;2023-02-11T03:30:12;101943.50;;;10.32;100.00
22550;BME280;11441;57.164;-2.120;2023-02-11T03:32:56;101954.47;;;10.15;100.00
22550;BME280;11441;57.164;-2.120;2023-02-11T03:35:32;101946.53;;;10.22;100.00
22550;BME280;11441;57.164;-2.120;2023-02-11T03:38:22;101943.13;;;10.08;100.00
22550;BME280;11441;57.164;-2.120;2023-02-11T03:40:53;101953.31;;;10.07;100.00
22550;BME280;11441;57.164;-2.120;2023-02-11T03:43:25;101955.59;;;10.05;100.00
22550;BME280;11441;57.164;-2.120;2023-02-11T03:46:16;101952.69;;;10.10;100.00
22550;BME280;11441;57.164;-2.120;2023-02-11T03:48:49;101953.50;;;10.11;100.00
22550;BME280;11441;57.164;-2.120;2023-02-11T03:51:19;101945.38;;;10.06;100.00
22550;BME280;11441;57.164;-2.120;2023-02-11T03:53:48;101953.34;;;10.16;100.00
22550;BME280;11441;57.164;-2.120;2023-02-11T03:56:42;101955.47;;;10.19;100.00
22550;BME280;11441;57.164;-2.120;2023-02-11T03:59:12;101953.34;;;10.16;100.00
22550;BME280;11441;57.164;-2.120;2023-02-11T04:01:39;101952.19;;;10.17;100.00
22550;BME280;11441;57.164;-2.120;2023-02-11T04:07:28;101956.75;;;10.22;100.00
22550;BME280;11441;57.164;-2.120;2023-02-11T04:09:54;101951.91;;;10.36;100.00
22550;BME280;11441;57.164;-2.120;2023-02-11T04:12:21;101952.91;;;10.40;100.00
22550;BME280;11441;57.164;-2.120;2023-02-11T04:14:48;101953.41;;;10.42;100.00
22550;BME280;11441;57.164;-2.120;2023-02-11T04:17:15;101950.00;;;10.45;100.00
22550;BME280;11441;57.164;-2.120;2023-02-11T04:20:01;101946.56;;;10.48;100.00
22550;BME280;11441;57.164;-2.120;2023-02-11T04:22:28;101948.69;;;10.60;100.00
22550;BME280;11441;57.164;-2.120;2023-02-11T04:24:56;101944.50;;;10.63;100.00
22550;BME280;11441;57.164;-2.120;2023-02-11T04:27:22;101954.50;;;10.76;100.00
22550;BME280;11441;57.164;-2.120;2023-02-11T04:29:49;101958.41;;;10.84;100.00
22550;BME280;11441;57.164;-2.120;2023-02-11T04:32:16;101961.66;;;10.77;100.00
22550;BME280;11441;57.164;-2.120;2023-02-11T04:34:43;101968.44;;;10.80;100.00
22550;BME280;11441;57.164;-2.120;2023-02-11T04:37:10;101969.75;;;10.73;100.00
22550;BME280;11441;57.164;-2.120;2023-02-11T04:39:37;101976.38;;;10.81;100.00
22550;BME280;11441;57.164;-2.120;2023-02-11T04:42:04;101974.94;;;10.84;100.00
22550;BME280;11441;57.164;-2.120;2023-02-11T04:44:31;101987.56;;;10.67;100.00
22550;BME280;11441;57.164;-2.120;2023-02-11T04:46:58;101991.31;;;10.71;100.00
22550;BME280;11441;57.164;-2.120;2023-02-11T04:49:24;101996.84;;;10.71;100.00
22550;BME280;11441;57.164;-2.120;2023-02-11T04:51:51;102008.81;;;10.67;100.00
22550;BME280;11441;57.164;-2.120;2023-02-11T04:54:18;102020.47;;;10.64;100.00
22550;BME280;11441;57.164;-2.120;2023-02-11T04:56:45;102017.25;;;10.79;100.00
22550;BME280;11441;57.164;-2.120;2023-02-11T04:59:12;102032.00;;;10.83;100.00
22550;BME280;11441;57.164;-2.120;2023-02-11T05:01:39;102033.47;;;10.72;100.00
22550;BME280;11441;57.164;-2.120;2023-02-11T05:04:06;102031.03;;;10.79;100.00
22550;BME280;11441;57.164;-2.120;2023-02-11T05:06:33;102031.66;;;10.85;100.00
22550;BME280;11441;57.164;-2.120;2023-02-11T05:09:00;102030.38;;;10.73;100.00
22550;BME280;11441;57.164;-2.120;2023-02-11T05:11:27;102042.03;;;10.62;100.00
22550;BME280;11441;57.164;-2.120;2023-02-11T05:13:53;102044.44;;;10.46;100.00
22550;BME280;11441;57.164;-2.120;2023-02-11T05:16:20;102032.78;;;10.31;100.00
22550;BME280;11441;57.164;-2.120;2023-02-11T05:18:47;102042.88;;;10.13;100.00
22550;BME280;11441;57.164;-2.120;2023-02-11T05:21:18;102047.59;;;10.22;100.00
22550;BME280;11441;57.164;-2.120;2023-02-11T05:23:45;102059.94;;;10.24;100.00
22550;BME280;11441;57.164;-2.120;2023-02-11T05:26:13;102052.22;;;10.35;100.00
22550;BME280;11441;57.164;-2.120;2023-02-11T05:28:40;102066.78;;;10.35;100.00
22550;BME280;11441;57.164;-2.120;2023-02-11T05:31:07;102089.72;;;10.31;100.00
22550;BME280;11441;57.164;-2.120;2023-02-11T05:33:52;102086.16;;;10.22;100.00
22550;BME280;11441;57.164;-2.120;2023-02-11T05:36:19;102092.81;;;10.21;100.00
22550;BME280;11441;57.164;-2.120;2023-02-11T05:38:45;102090.00;;;10.12;100.00
22550;BME280;11441;57.164;-2.120;2023-02-11T05:41:12;102089.28;;;9.97;100.00
22550;BME280;11441;57.164;-2.120;2023-02-11T05:43:39;102094.09;;;9.83;100.00
22550;BME280;11441;57.164;-2.120;2023-02-11T05:46:06;102092.41;;;9.73;100.00
22550;BME280;11441;57.164;-2.120;2023-02-11T05:48:33;102096.00;;;9.74;100.00
22550;BME280;11441;57.164;-2.120;2023-02-11T05:51:00;102091.91;;;9.71;100.00
22550;BME280;11441;57.164;-2.120;2023-02-11T05:53:27;102100.84;;;9.77;100.00
22550;BME280;11441;57.164;-2.120;2023-02-11T05:55:54;102110.06;;;9.72;100.00
22550;BME280;11441;57.164;-2.120;2023-02-11T05:58:20;102120.03;;;9.68;100.00
22550;BME280;11441;57.164;-2.120;2023-02-11T06:00:47;102113.28;;;9.74;100.00
22550;BME280;11441;57.164;-2.120;2023-02-11T06:03:14;102122.97;;;9.72;100.00
22550;BME280;11441;57.164;-2.120;2023-02-11T06:05:42;102119.66;;;9.84;100.00
22550;BME280;11441;57.164;-2.120;2023-02-11T06:08:09;102131.03;;;9.91;100.00
22550;BME280;11441;57.164;-2.120;2023-02-11T06:10:36;102137.28;;;10.05;100.00
22550;BME280;11441;57.164;-2.120;2023-02-11T06:13:03;102144.34;;;9.97;100.00
22550;BME280;11441;57.164;-2.120;2023-02-11T06:15:30;102154.09;;;10.04;100.00
22550;BME280;11441;57.164;-2.120;2023-02-11T06:17:57;102155.75;;;10.13;100.00
22550;BME280;11441;57.164;-2.120;2023-02-11T06:20:23;102148.63;;;10.12;100.00
22550;BME280;11441;57.164;-2.120;2023-02-11T06:22:50;102146.06;;;10.16;100.00
22550;BME280;11441;57.164;-2.120;2023-02-11T06:25:17;102144.72;;;10.13;100.00
22550;BME280;11441;57.164;-2.120;2023-02-11T06:27:44;102145.25;;;10.15;100.00
22550;BME280;11441;57.164;-2.120;2023-02-11T06:30:11;102143.78;;;10.18;100.00
22550;BME280;11441;57.164;-2.120;2023-02-11T06:32:38;102141.84;;;10.18;100.00
22550;BME280;11441;57.164;-2.120;2023-02-11T06:35:11;102141.94;;;10.05;100.00
22550;BME280;11441;57.164;-2.120;2023-02-11T06:37:39;102157.34;;;10.06;100.00
22550;BME280;11441;57.164;-2.120;2023-02-11T06:40:06;102158.50;;;10.13;100.00
22550;BME280;11441;57.164;-2.120;2023-02-11T06:42:33;102163.19;;;10.13;100.00
22550;BME280;11441;57.164;-2.120;2023-02-11T06:45:02;102174.53;;;10.11;100.00
22550;BME280;11441;57.164;-2.120;2023-02-11T06:47:31;102171.91;;;10.06;100.00
22550;BME280;11441;57.164;-2.120;2023-02-11T06:49:58;102180.16;;;10.06;100.00
22550;BME280;11441;57.164;-2.120;2023-02-11T06:52:25;102191.91;;;10.21;100.00
22550;BME280;11441;57.164;-2.120;2023-02-11T06:55:10;102177.91;;;10.08;100.00
22550;BME280;11441;57.164;-2.120;2023-02-11T06:57:37;102183.19;;;10.27;100.00
22550;BME280;11441;57.164;-2.120;2023-02-11T07:00:04;102169.56;;;10.22;100.00
22550;BME280;11441;57.164;-2.120;2023-02-11T07:02:31;102182.88;;;10.29;100.00
22550;BME280;11441;57.164;-2.120;2023-02-11T07:04:58;102187.53;;;10.19;100.00
22550;BME280;11441;57.164;-2.120;2023-02-11T07:07:26;102201.31;;;10.19;100.00
22550;BME280;11441;57.164;-2.120;2023-02-11T07:09:53;102204.41;;;10.27;100.00
22550;BME280;11441;57.164;-2.120;2023-02-11T07:12:20;102209.19;;;10.12;100.00
22550;BME280;11441;57.164;-2.120;2023-02-11T07:14:46;102202.22;;;10.15;100.00
22550;BME280;11441;57.164;-2.120;2023-02-11T07:20:18;102213.50;;;10.05;100.00
22550;BME280;11441;57.164;-2.120;2023-02-11T07:22:44;102221.16;;;10.08;100.00
22550;BME280;11441;57.164;-2.120;2023-02-11T07:25:11;102221.91;;;9.99;100.00
22550;BME280;11441;57.164;-2.120;2023-02-11T07:27:38;102227.31;;;10.13;100.00
22550;BME280;11441;57.164;-2.120;2023-02-11T07:30:24;102230.25;;;10.17;100.00
22550;BME280;11441;57.164;-2.120;2023-02-11T07:32:51;102239.00;;;10.10;100.00
22550;BME280;11441;57.164;-2.120;2023-02-11T07:35:18;102243.53;;;9.92;100.00
22550;BME280;11441;57.164;-2.120;2023-02-11T07:37:44;102245.31;;;9.88;100.00
22550;BME280;11441;57.164;-2.120;2023-02-11T07:40:11;102242.25;;;9.90;100.00
22550;BME280;11441;57.164;-2.120;2023-02-11T07:42:38;102249.63;;;9.80;100.00
22550;BME280;11441;57.164;-2.120;2023-02-11T07:45:07;102249.69;;;9.67;100.00
22550;BME280;11441;57.164;-2.120;2023-02-11T07:47:34;102247.56;;;9.63;100.00
22550;BME280;11441;57.164;-2.120;2023-02-11T07:50:01;102256.56;;;9.78;100.00
22550;BME280;11441;57.164;-2.120;2023-02-11T07:52:29;102250.75;;;9.79;100.00
22550;BME280;11441;57.164;-2.120;2023-02-11T07:54:56;102249.34;;;9.68;100.00
22550;BME280;11441;57.164;-2.120;2023-02-11T07:57:22;102260.69;;;9.67;100.00
22550;BME280;11441;57.164;-2.120;2023-02-11T07:59:49;102258.22;;;9.42;100.00
22550;BME280;11441;57.164;-2.120;2023-02-11T08:02:16;102258.47;;;9.55;100.00
22550;BME280;11441;57.164;-2.120;2023-02-11T08:04:45;102264.16;;;9.58;100.00
22550;BME280;11441;57.164;-2.120;2023-02-11T08:07:16;102258.44;;;9.32;100.00
22550;BME280;11441;57.164;-2.120;2023-02-11T08:09:43;102270.06;;;9.15;100.00
22550;BME280;11441;57.164;-2.120;2023-02-11T08:12:10;102265.56;;;9.19;100.00
22550;BME280;11441;57.164;-2.120;2023-02-11T08:14:37;102265.44;;;9.24;100.00
22550;BME280;11441;57.164;-2.120;2023-02-11T08:17:04;102271.38;;;9.18;100.00
22550;BME280;11441;57.164;-2.120;2023-02-11T08:19:30;102271.06;;;9.19;100.00
22550;BME280;11441;57.164;-2.120;2023-02-11T08:22:00;102278.59;;;9.14;100.00
22550;BME280;11441;57.164;-2.120;2023-02-11T08:24:27;102280.94;;;9.20;100.00
22550;BME280;11441;57.164;-2.120;2023-02-11T08:26:54;102283.38;;;9.22;100.00
22550;BME280;11441;57.164;-2.120;2023-02-11T08:29:21;102290.31;;;9.19;100.00
22550;BME280;11441;57.164;-2.120;2023-02-11T08:32:06;102289.69;;;8.95;100.00
22550;BME280;11441;57.164;-2.120;2023-02-11T08:34:33;102299.38;;;9.06;100.00
22550;BME280;11441;57.164;-2.120;2023-02-11T08:37:00;102295.69;;;9.11;100.00
22550;BME280;11441;57.164;-2.120;2023-02-11T08:39:27;102295.50;;;9.21;100.00
22550;BME280;11441;57.164;-2.120;2023-02-11T08:41:54;102295.69;;;9.24;100.00
22550;BME280;11441;57.164;-2.120;2023-02-11T08:44:23;102308.72;;;9.33;100.00
22550;BME280;11441;57.164;-2.120;2023-02-11T08:46:50;102303.03;;;9.15;100.00
22550;BME280;11441;57.164;-2.120;2023-02-11T08:49:18;102300.00;;;9.17;100.00
22550;BME280;11441;57.164;-2.120;2023-02-11T08:51:45;102319.44;;;9.20;100.00
22550;BME280;11441;57.164;-2.120;2023-02-11T08:54:13;102313.13;;;9.34;100.00
22550;BME280;11441;57.164;-2.120;2023-02-11T08:56:40;102314.22;;;9.33;100.00
22550;BME280;11441;57.164;-2.120;2023-02-11T08:59:10;102328.28;;;9.31;100.00
22550;BME280;11441;57.164;-2.120;2023-02-11T09:01:38;102325.00;;;9.43;100.00
22550;BME280;11441;57.164;-2.120;2023-02-11T09:04:05;102324.50;;;9.41;100.00
22550;BME280;11441;57.164;-2.120;2023-02-11T09:06:31;102332.34;;;9.48;100.00
22550;BME280;11441;57.164;-2.120;2023-02-11T09:08:58;102339.53;;;9.57;100.00
22550;BME280;11441;57.164;-2.120;2023-02-11T09:11:31;102333.22;;;9.71;100.00
22550;BME280;11441;57.164;-2.120;2023-02-11T09:14:19;102346.19;;;9.56;100.00
22550;BME280;11441;57.164;-2.120;2023-02-11T09:16:47;102332.59;;;9.74;100.00
22550;BME280;11441;57.164;-2.120;2023-02-11T09:19:14;102339.31;;;9.68;100.00
22550;BME280;11441;57.164;-2.120;2023-02-11T09:22:00;102340.75;;;9.79;100.00
22550;BME280;11441;57.164;-2.120;2023-02-11T09:24:27;102335.94;;;9.85;100.00
22550;BME280;11441;57.164;-2.120;2023-02-11T09:26:54;102338.69;;;9.85;100.00
22550;BME280;11441;57.164;-2.120;2023-02-11T09:29:20;102351.19;;;9.91;100.00
22550;BME280;11441;57.164;-2.120;2023-02-11T09:31:47;102346.81;;;9.90;100.00
22550;BME280;11441;57.164;-2.120;2023-02-11T09:34:15;102346.63;;;9.86;100.00
22550;BME280;11441;57.164;-2.120;2023-02-11T09:36:42;102347.31;;;9.92;100.00
22550;BME280;11441;57.164;-2.120;2023-02-11T09:39:12;102351.59;;;9.98;100.00
22550;BME280;11441;57.164;-2.120;2023-02-11T09:44:52;102351.78;;;10.02;100.00
22550;BME280;11441;57.164;-2.120;2023-02-11T09:47:34;102357.56;;;10.14;100.00
22550;BME280;11441;57.164;-2.120;2023-02-11T09:50:15;102352.06;;;10.14;100.00
22550;BME280;11441;57.164;-2.120;2023-02-11T09:55:32;102369.63;;;10.27;100.00
22550;BME280;11441;57.164;-2.120;2023-02-11T09:58:06;102367.25;;;10.11;100.00
22550;BME280;11441;57.164;-2.120;2023-02-11T10:03:21;102366.13;;;10.12;100.00
22550;BME280;11441;57.164;-2.120;2023-02-11T10:06:10;102365.66;;;10.33;100.00
22550;BME280;11441;57.164;-2.120;2023-02-11T10:11:54;102373.53;;;10.48;100.00
22550;BME280;11441;57.164;-2.120;2023-02-11T10:24:59;102364.09;;;10.94;100.00
22550;BME280;11441;57.164;-2.120;2023-02-11T10:27:34;102371.78;;;11.06;100.00
22550;BME280;11441;57.164;-2.120;2023-02-11T10:30:05;102370.47;;;11.12;100.00
22550;BME280;11441;57.164;-2.120;2023-02-11T10:32:45;102378.53;;;11.00;100.00
22550;BME280;11441;57.164;-2.120;2023-02-11T10:35:19;102362.88;;;11.09;100.00
22550;BME280;11441;57.164;-2.120;2023-02-11T10:37:47;102376.94;;;10.99;100.00
22550;BME280;11441;57.164;-2.120;2023-02-11T10:40:26;102383.19;;;11.22;100.00
22550;BME280;11441;57.164;-2.120;2023-02-11T10:42:59;102384.06;;;11.00;100.00
22550;BME280;11441;57.164;-2.120;2023-02-11T10:45:53;102388.81;;;11.08;100.00
22550;BME280;11441;57.164;-2.120;2023-02-11T10:48:47;102390.28;;;11.14;100.00
22550;BME280;11441;57.164;-2.120;2023-02-11T10:51:33;102392.59;;;11.30;100.00
22550;BME280;11441;57.164;-2.120;2023-02-11T10:56:33;102382.22;;;11.18;100.00
22550;BME280;11441;57.164;-2.120;2023-02-11T10:59:04;102389.25;;;11.42;100.00
22550;BME280;11441;57.164;-2.120;2023-02-11T11:01:42;102389.72;;;11.35;100.00
22550;BME280;11441;57.164;-2.120;2023-02-11T11:07:08;102395.53;;;11.33;100.00
22550;BME280;11441;57.164;-2.120;2023-02-11T11:09:46;102400.13;;;11.38;100.00
22550;BME280;11441;57.164;-2.120;2023-02-11T11:15:26;102389.84;;;11.30;100.00
22550;BME280;11441;57.164;-2.120;2023-02-11T11:18:14;102392.94;;;11.28;100.00
22550;BME280;11441;57.164;-2.120;2023-02-11T11:20:59;102399.25;;;11.20;100.00
22550;BME280;11441;57.164;-2.120;2023-02-11T11:23:28;102398.47;;;11.37;100.00
22550;BME280;11441;57.164;-2.120;2023-02-11T11:26:10;102395.72;;;11.37;100.00
22550;BME280;11441;57.164;-2.120;2023-02-11T11:31:31;102388.19;;;11.60;100.00
22550;BME280;11441;57.164;-2.120;2023-02-11T11:34:22;102395.22;;;11.35;100.00
22550;BME280;11441;57.164;-2.120;2023-02-11T11:36:48;102390.44;;;11.58;100.00
22550;BME280;11441;57.164;-2.120;2023-02-11T11:39:24;102391.13;;;11.73;100.00
22550;BME280;11441;57.164;-2.120;2023-02-11T11:41:56;102394.19;;;11.71;100.00
22550;BME280;11441;57.164;-2.120;2023-02-11T11:44:25;102403.31;;;11.80;100.00
22550;BME280;11441;57.164;-2.120;2023-02-11T11:50:08;102392.47;;;12.01;100.00
22550;BME280;11441;57.164;-2.120;2023-02-11T11:52:47;102386.00;;;11.97;100.00
22550;BME280;11441;57.164;-2.120;2023-02-11T11:55:21;102390.84;;;11.92;100.00
22550;BME280;11441;57.164;-2.120;2023-02-11T11:57:50;102389.50;;;11.80;100.00
22550;BME280;11441;57.164;-2.120;2023-02-11T12:00:24;102378.47;;;11.89;100.00
22550;BME280;11441;57.164;-2.120;2023-02-11T12:03:08;102379.00;;;12.00;100.00
22550;BME280;11441;57.164;-2.120;2023-02-11T12:05:54;102383.69;;;11.91;100.00
22550;BME280;11441;57.164;-2.120;2023-02-11T12:19:46;102364.53;;;12.38;100.00
22550;BME280;11441;57.164;-2.120;2023-02-11T12:27:32;102355.28;;;12.25;100.00
22550;BME280;11441;57.164;-2.120;2023-02-11T12:30:13;102357.06;;;12.30;100.00
22550;BME280;11441;57.164;-2.120;2023-02-11T12:33:05;102341.16;;;12.26;100.00
22550;BME280;11441;57.164;-2.120;2023-02-11T12:38:31;102336.59;;;12.31;100.00
22550;BME280;11441;57.164;-2.120;2023-02-11T12:45:08;102334.13;;;12.47;100.00
22550;BME280;11441;57.164;-2.120;2023-02-11T12:48:03;102330.38;;;12.51;100.00
22550;BME280;11441;57.164;-2.120;2023-02-11T12:53:40;102335.94;;;12.34;100.00
22550;BME280;11441;57.164;-2.120;2023-02-11T12:58:56;102334.31;;;12.33;100.00
22550;BME280;11441;57.164;-2.120;2023-02-11T13:01:34;102336.56;;;12.48;100.00
22550;BME280;11441;57.164;-2.120;2023-02-11T13:04:23;102333.00;;;12.39;100.00
22550;BME280;11441;57.164;-2.120;2023-02-11T13:06:58;102332.84;;;12.44;100.00
22550;BME280;11441;57.164;-2.120;2023-02-11T13:09:34;102330.72;;;12.41;100.00
22550;BME280;11441;57.164;-2.120;2023-02-11T13:12:02;102326.97;;;12.45;100.00
22550;BME280;11441;57.164;-2.120;2023-02-11T13:14:53;102318.31;;;12.64;100.00
22550;BME280;11441;57.164;-2.120;2023-02-11T13:17:34;102323.06;;;12.38;100.00
22550;BME280;11441;57.164;-2.120;2023-02-11T13:23:22;102330.41;;;12.34;100.00
22550;BME280;11441;57.164;-2.120;2023-02-11T13:31:37;102335.00;;;12.21;100.00
22550;BME280;11441;57.164;-2.120;2023-02-11T13:34:23;102334.78;;;12.52;100.00
22550;BME280;11441;57.164;-2.120;2023-02-11T13:36:54;102329.28;;;12.43;100.00
22550;BME280;11441;57.164;-2.120;2023-02-11T13:39:22;102328.75;;;12.41;100.00
22550;BME280;11441;57.164;-2.120;2023-02-11T13:41:49;102332.03;;;12.43;100.00
22550;BME280;11441;57.164;-2.120;2023-02-11T13:44:21;102337.16;;;12.62;100.00
22550;BME280;11441;57.164;-2.120;2023-02-11T13:46:56;102343.19;;;12.64;100.00
22550;BME280;11441;57.164;-2.120;2023-02-11T13:49:29;102347.56;;;12.66;100.00
22550;BME280;11441;57.164;-2.120;2023-02-11T13:51:58;102346.78;;;12.56;100.00
22550;BME280;11441;57.164;-2.120;2023-02-11T13:54:35;102345.97;;;12.56;100.00
22550;BME280;11441;57.164;-2.120;2023-02-11T14:11:46;102348.72;;;12.64;100.00
22550;BME280;11441;57.164;-2.120;2023-02-11T14:14:26;102357.47;;;12.75;100.00
22550;BME280;11441;57.164;-2.120;2023-02-11T14:19:45;102337.63;;;12.73;100.00
22550;BME280;11441;57.164;-2.120;2023-02-11T14:22:16;102344.00;;;12.65;100.00
22550;BME280;11441;57.164;-2.120;2023-02-11T14:38:01;102341.03;;;12.79;100.00
22550;BME280;11441;57.164;-2.120;2023-02-11T14:43:44;102356.16;;;12.73;100.00
22550;BME280;11441;57.164;-2.120;2023-02-11T14:46:16;102359.78;;;12.64;100.00
22550;BME280;11441;57.164;-2.120;2023-02-11T14:48:46;102363.16;;;12.70;100.00
22550;BME280;11441;57.164;-2.120;2023-02-11T14:51:40;102366.75;;;12.71;100.00
22550;BME280;11441;57.164;-2.120;2023-02-11T14:54:13;102356.19;;;12.64;100.00
22550;BME280;11441;57.164;-2.120;2023-02-11T14:56:42;102374.22;;;12.70;100.00
22550;BME280;11441;57.164;-2.120;2023-02-11T14:59:27;102377.16;;;12.74;100.00
22550;BME280;11441;57.164;-2.120;2023-02-11T15:01:54;102370.47;;;12.75;100.00
22550;BME280;11441;57.164;-2.120;2023-02-11T15:04:32;102370.25;;;12.89;100.00
22550;BME280;11441;57.164;-2.120;2023-02-11T15:07:05;102364.28;;;12.78;100.00
22550;BME280;11441;57.164;-2.120;2023-02-11T15:09:44;102368.50;;;12.84;100.00
22550;BME280;11441;57.164;-2.120;2023-02-11T15:12:18;102379.25;;;12.86;100.00
22550;BME280;11441;57.164;-2.120;2023-02-11T15:15:11;102383.75;;;12.90;100.00
22550;BME280;11441;57.164;-2.120;2023-02-11T15:17:40;102388.19;;;12.74;100.00
22550;BME280;11441;57.164;-2.120;2023-02-11T15:20:17;102379.31;;;12.42;100.00
22550;BME280;11441;57.164;-2.120;2023-02-11T15:22:46;102383.69;;;12.52;100.00
22550;BME280;11441;57.164;-2.120;2023-02-11T15:25:15;102386.28;;;12.57;100.00
22550;BME280;11441;57.164;-2.120;2023-02-11T15:27:49;102387.06;;;12.66;100.00